Terminal Aerodrome Forecast
Issued by NWS

Home | Current Version | Previous Version | Text Only | Print | Product List | Glossary On
Versions: 1 2 3 4 5 6 7 8 9 10 11 12 13 14 15 16 17 18 19 20 21 22 23 24 25 26
000
FTUS44 KTSA 011737
TAFMLC
TAF
KMLC 011737Z 0118/0218 35010KT P6SM FEW180
     FM020000 34005KT P6SM BKN040 BKN080 PROB30 0203/0206 -RA BKN035
     FM020600 35007KT P6SM VCSH BKN035 PROB30 0206/0210 6SM RA
      BKN025
     FM021200 34008KT P6SM BKN025=

USA.gov is the U.S. government's official web portal to all federal, state and local government web resources and services.